Time,TemperatureF,DewpointF,PressureIn,WindDirection,WindDirectionDegrees,WindSpeedMPH,WindSpeedGustMPH,Humidity,HourlyPrecipIn,Conditions,Clouds,dailyrainin,SoftwareType,DateUTC
2013-01-17 00:00:00,27.9,20.4,30.21,SSW,204,0.0,0.0,73,0.00,,,0.00,VWS V14.01,2013-01-17 06:00:00,
2013-01-17 00:10:00,27.9,20.4,30.21,SSW,204,0.0,0.0,73,0.00,,,0.00,VWS V14.01,2013-01-17 06:10:00,
2013-01-17 00:15:00,27.8,20.3,30.21,SSW,204,0.0,0.0,73,0.00,,,0.00,VWS V14.01,2013-01-17 06:15:00,
2013-01-17 00:20:00,27.8,20.0,30.21,SSW,203,0.0,0.0,72,0.00,,,0.00,VWS V14.01,2013-01-17 06:20:00,
2013-01-17 00:25:00,27.8,20.0,30.21,SSW,204,0.0,0.0,72,0.00,,,0.00,VWS V14.01,2013-01-17 06:25:00,
2013-01-17 00:30:00,27.8,20.0,30.22,SSW,204,0.0,0.0,72,0.00,,,0.00,VWS V14.01,2013-01-17 06:30:00,
2013-01-17 00:35:00,27.8,20.0,30.22,SSW,204,0.0,0.0,72,0.00,,,0.00,VWS V14.01,2013-01-17 06:35:00,
2013-01-17 00:40:00,27.7,19.5,30.22,SSW,204,0.0,0.0,71,0.00,,,0.00,VWS V14.01,2013-01-17 06:40:00,
2013-01-17 00:45:00,27.6,19.8,30.22,SSW,204,0.0,0.0,72,0.00,,,0.00,VWS V14.01,2013-01-17 06:45:00,
2013-01-17 00:55:00,27.6,19.8,30.22,SSW,203,0.0,0.0,72,0.00,,,0.00,VWS V14.01,2013-01-17 06:55:00,
2013-01-17 01:00:00,27.6,19.8,30.22,SSW,203,0.0,0.0,72,0.00,,,0.00,VWS V14.01,2013-01-17 07:00:00,
2013-01-17 01:05:00,27.6,19.8,30.22,SSW,204,0.0,0.0,72,0.00,,,0.00,VWS V14.01,2013-01-17 07:05:00,
2013-01-17 01:10:00,27.5,19.7,30.22,SSW,204,0.0,0.0,72,0.00,,,0.00,VWS V14.01,2013-01-17 07:10:00,
2013-01-17 01:15:00,27.5,19.4,30.22,SSW,204,0.0,0.0,71,0.00,,,0.00,VWS V14.01,2013-01-17 07:15:00,
2013-01-17 01:20:00,27.4,19.2,30.22,SSW,203,0.0,0.0,71,0.00,,,0.00,VWS V14.01,2013-01-17 07:20:00,
2013-01-17 01:25:00,27.3,19.1,30.22,SSW,204,0.0,0.0,71,0.00,,,0.00,VWS V14.01,2013-01-17 07:25:00,
2013-01-17 01:30:00,27.2,19.1,30.23,SSW,204,0.0,0.0,71,0.00,,,0.00,VWS V14.01,2013-01-17 07:30:00,
2013-01-17 01:35:00,27.1,19.0,30.23,SSW,204,0.0,0.0,71,0.00,,,0.00,VWS V14.01,2013-01-17 07:35:00,
2013-01-17 01:40:00,26.9,18.8,30.23,SSW,204,0.0,0.0,71,0.00,,,0.00,VWS V14.01,2013-01-17 07:40:00,
2013-01-17 01:45:00,26.7,19.2,30.23,SSW,204,0.0,0.0,73,0.00,,,0.00,VWS V14.01,2013-01-17 07:45:00,
2013-01-17 09:45:00,35.5,30.9,30.41,NNW,342,4.0,0.0,83,0.00,,,0.00,VWS V14.01,2013-01-17 15:45:00,
2013-01-17 09:55:00,35.8,31.1,30.41,NW,325,2.0,0.0,83,0.00,,,0.00,VWS V14.01,2013-01-17 15:55:00,
2013-01-17 10:05:00,36.4,31.4,30.42,NE,49,7.0,0.0,82,0.00,,,0.00,VWS V14.01,2013-01-17 16:05:00,
2013-01-17 10:10:00,36.8,31.8,30.42,NW,315,0.0,0.0,82,0.00,,,0.00,VWS V14.01,2013-01-17 16:10:00,
2013-01-17 10:15:00,36.9,31.6,30.42,North,355,0.0,0.0,81,0.00,,,0.00,VWS V14.01,2013-01-17 16:15:00,
2013-01-17 10:20:00,37.1,31.8,30.42,NE,46,3.0,0.0,81,0.00,,,0.00,VWS V14.01,2013-01-17 16:20:00,
2013-01-17 10:25:00,37.5,32.5,30.42,NW,323,4.0,0.0,82,0.00,,,0.00,VWS V14.01,2013-01-17 16:25:00,
2013-01-17 10:30:00,37.8,32.5,30.42,NNW,344,6.0,0.0,81,0.00,,,0.00,VWS V14.01,2013-01-17 16:30:00,
2013-01-17 10:35:00,37.8,32.5,30.42,North,360,4.0,0.0,81,0.00,,,0.00,VWS V14.01,2013-01-17 16:35:00,
2013-01-17 10:40:00,37.9,32.3,30.42,NNW,340,3.0,0.0,80,0.00,,,0.00,VWS V14.01,2013-01-17 16:40:00,
2013-01-17 10:45:00,38.0,32.4,30.43,NW,304,0.0,0.0,80,0.00,,,0.00,VWS V14.01,2013-01-17 16:45:00,
2013-01-17 10:50:00,38.3,32.4,30.43,NW,317,0.0,0.0,79,0.00,,,0.00,VWS V14.01,2013-01-17 16:50:00,
2013-01-17 11:00:00,38.9,33.0,30.43,North,350,1.0,0.0,79,0.00,,,0.00,VWS V14.01,2013-01-17 17:00:00,
2013-01-17 11:10:00,39.8,33.5,30.43,NNW,333,0.0,0.0,78,0.00,,,0.00,VWS V14.01,2013-01-17 17:10:00,
2013-01-17 11:20:00,39.9,33.0,30.43,NNE,25,7.0,0.0,76,0.00,,,0.00,VWS V14.01,2013-01-17 17:20:00,
2013-01-17 11:25:00,40.0,33.1,30.43,NNE,13,6.0,0.0,76,0.00,,,0.00,VWS V14.01,2013-01-17 17:25:00,
2013-01-17 11:30:00,40.4,33.5,30.43,NW,308,3.0,0.0,76,0.00,,,0.00,VWS V14.01,2013-01-17 17:30:00,
2013-01-17 11:35:00,40.9,33.3,30.43,North,355,0.0,0.0,74,0.00,,,0.00,VWS V14.01,2013-01-17 17:35:00,
2013-01-17 11:40:00,41.3,33.3,30.43,NNW,348,2.0,0.0,73,0.00,,,0.00,VWS V14.01,2013-01-17 17:40:00,
2013-01-17 11:45:00,41.6,33.3,30.42,NW,316,0.0,0.0,72,0.00,,,0.00,VWS V14.01,2013-01-17 17:45:00,
2013-01-17 11:50:00,42.0,33.3,30.42,NNE,18,7.0,0.0,71,0.00,,,0.00,VWS V14.01,2013-01-17 17:50:00,
2013-01-17 12:00:00,42.3,33.2,30.42,NW,316,3.0,0.0,70,0.00,,,0.00,VWS V14.01,2013-01-17 18:00:00,
2013-01-17 12:05:00,42.7,32.9,30.42,West,277,4.0,0.0,68,0.00,,,0.00,VWS V14.01,2013-01-17 18:05:00,
2013-01-17 12:15:00,43.7,33.5,30.41,NNW,331,2.0,0.0,67,0.00,,,0.00,VWS V14.01,2013-01-17 18:15:00,
2013-01-17 12:25:00,44.8,33.8,30.41,NNW,346,5.0,0.0,65,0.00,,,0.00,VWS V14.01,2013-01-17 18:25:00,
2013-01-17 12:30:00,44.5,32.7,30.41,NNW,342,4.0,0.0,63,0.00,,,0.00,VWS V14.01,2013-01-17 18:30:00,
2013-01-17 12:35:00,44.4,32.2,30.41,NNW,339,10.0,0.0,62,0.00,,,0.00,VWS V14.01,2013-01-17 18:35:00,
2013-01-17 12:40:00,44.4,32.6,30.41,NW,317,2.0,0.0,63,0.00,,,0.00,VWS V14.01,2013-01-17 18:40:00,
2013-01-17 12:45:00,44.7,32.9,30.41,NNW,340,0.0,0.0,63,0.00,,,0.00,VWS V14.01,2013-01-17 18:45:00,
2013-01-17 12:50:00,44.8,32.2,30.41,NW,325,0.0,0.0,61,0.00,,,0.00,VWS V14.01,2013-01-17 18:50:00,
2013-01-17 12:55:00,45.1,32.9,30.41,WNW,302,0.0,0.0,62,0.00,,,0.00,VWS V14.01,2013-01-17 18:55:00,
2013-01-17 13:00:00,45.3,32.2,30.41,NNE,32,0.0,0.0,60,0.00,,,0.00,VWS V14.01,2013-01-17 19:00:00,
2013-01-17 13:10:00,45.4,32.8,30.41,NNE,23,0.0,0.0,61,0.00,,,0.00,VWS V14.01,2013-01-17 19:10:00,
2013-01-17 13:30:00,46.6,32.6,30.41,NNW,347,4.0,0.0,58,0.00,,,0.00,VWS V14.01,2013-01-17 19:30:00,
2013-01-17 13:35:00,46.7,32.3,30.41,NNW,344,4.0,0.0,57,0.00,,,0.00,VWS V14.01,2013-01-17 19:35:00,
2013-01-17 13:40:00,46.7,31.9,30.41,NNE,13,2.0,0.0,56,0.00,,,0.00,VWS V14.01,2013-01-17 19:40:00,
2013-01-17 13:45:00,46.5,31.2,30.41,NNW,337,6.0,0.0,55,0.00,,,0.00,VWS V14.01,2013-01-17 19:45:00,
2013-01-17 15:25:00,47.7,30.0,30.41,WNW,298,4.0,0.0,50,0.00,,,0.00,VWS V14.01,2013-01-17 21:25:00,
2013-01-17 15:30:00,47.7,30.0,30.42,NNW,331,0.0,0.0,50,0.00,,,0.00,VWS V14.01,2013-01-17 21:30:00,
2013-01-17 15:35:00,47.5,29.8,30.42,NE,53,3.0,0.0,50,0.00,,,0.00,VWS V14.01,2013-01-17 21:35:00,
2013-01-17 15:40:00,47.3,30.1,30.42,NNW,338,0.0,0.0,51,0.00,,,0.00,VWS V14.01,2013-01-17 21:40:00,
2013-01-17 15:45:00,47.2,30.0,30.42,NNW,343,0.0,0.0,51,0.00,,,0.00,VWS V14.01,2013-01-17 21:45:00,
2013-01-17 15:50:00,47.2,30.5,30.42,North,10,2.0,0.0,52,0.00,,,0.00,VWS V14.01,2013-01-17 21:50:00,
2013-01-17 15:55:00,47.1,29.9,30.42,NW,313,3.0,0.0,51,0.00,,,0.00,VWS V14.01,2013-01-17 21:55:00,
2013-01-17 17:55:00,40.9,27.7,30.46,NNW,330,0.0,0.0,59,0.00,,,0.00,VWS V14.01,2013-01-17 23:55:00,
2013-01-17 18:00:00,40.6,27.8,30.47,NNW,336,0.0,0.0,60,0.00,,,0.00,VWS V14.01,2013-01-18 00:00:00,
2013-01-17 18:05:00,40.4,27.6,30.47,NNW,336,0.0,0.0,60,0.00,,,0.00,VWS V14.01,2013-01-18 00:05:00,
2013-01-17 18:10:00,40.1,27.4,30.47,NNW,336,0.0,0.0,60,0.00,,,0.00,VWS V14.01,2013-01-18 00:10:00,
2013-01-17 18:15:00,39.8,27.5,30.47,NNW,336,0.0,0.0,61,0.00,,,0.00,VWS V14.01,2013-01-18 00:15:00,
2013-01-17 18:20:00,39.4,27.1,30.47,NNW,336,0.0,0.0,61,0.00,,,0.00,VWS V14.01,2013-01-18 00:20:00,
2013-01-17 18:25:00,39.1,27.2,30.47,NNW,336,0.0,0.0,62,0.00,,,0.00,VWS V14.01,2013-01-18 00:25:00,
2013-01-17 18:30:00,38.8,27.3,30.48,NNW,336,0.0,0.0,63,0.00,,,0.00,VWS V14.01,2013-01-18 00:30:00,
2013-01-17 18:40:00,38.2,27.1,30.48,NNW,336,0.0,0.0,64,0.00,,,0.00,VWS V14.01,2013-01-18 00:40:00,
2013-01-17 18:50:00,37.8,27.1,30.49,NNW,336,0.0,0.0,65,0.00,,,0.00,VWS V14.01,2013-01-18 00:50:00,
2013-01-17 18:55:00,37.6,27.3,30.49,NNW,336,0.0,0.0,66,0.00,,,0.00,VWS V14.01,2013-01-18 00:55:00,
2013-01-17 19:05:00,37.2,27.3,30.49,NNW,336,0.0,0.0,67,0.00,,,0.00,VWS V14.01,2013-01-18 01:05:00,
2013-01-17 19:10:00,36.9,27.3,30.49,NNW,336,0.0,0.0,68,0.00,,,0.00,VWS V14.01,2013-01-18 01:10:00,
2013-01-17 19:15:00,36.8,27.2,30.49,NNW,336,0.0,0.0,68,0.00,,,0.00,VWS V14.01,2013-01-18 01:15:00,
2013-01-17 19:20:00,36.5,27.0,30.49,NNW,336,0.0,0.0,68,0.00,,,0.00,VWS V14.01,2013-01-18 01:20:00,
2013-01-17 19:25:00,36.2,27.0,30.49,NNW,336,0.0,0.0,69,0.00,,,0.00,VWS V14.01,2013-01-18 01:25:00,
2013-01-17 19:30:00,35.9,27.1,30.49,NNW,336,0.0,0.0,70,0.00,,,0.00,VWS V14.01,2013-01-18 01:30:00,
2013-01-17 19:35:00,35.6,26.8,30.49,NNW,336,0.0,0.0,70,0.00,,,0.00,VWS V14.01,2013-01-18 01:35:00,
2013-01-17 19:45:00,35.2,26.8,30.49,NNW,336,0.0,0.0,71,0.00,,,0.00,VWS V14.01,2013-01-18 01:45:00,
2013-01-17 19:50:00,34.9,26.5,30.49,NNW,336,0.0,0.0,71,0.00,,,0.00,VWS V14.01,2013-01-18 01:50:00,
2013-01-17 19:55:00,34.6,26.5,30.49,NNW,336,0.0,0.0,72,0.00,,,0.00,VWS V14.01,2013-01-18 01:55:00,
2013-01-17 20:00:00,34.4,26.7,30.49,NNW,336,0.0,0.0,73,0.00,,,0.00,VWS V14.01,2013-01-18 02:00:00,
2013-01-17 20:05:00,34.4,26.7,30.49,NNW,336,0.0,0.0,73,0.00,,,0.00,VWS V14.01,2013-01-18 02:05:00,
2013-01-17 20:10:00,34.1,26.4,30.49,NNW,336,0.0,0.0,73,0.00,,,0.00,VWS V14.01,2013-01-18 02:10:00,
2013-01-17 20:15:00,33.6,26.2,30.48,NNW,336,0.0,0.0,74,0.00,,,0.00,VWS V14.01,2013-01-18 02:15:00,
2013-01-17 20:20:00,33.3,26.2,30.48,NNW,336,0.0,0.0,75,0.00,,,0.00,VWS V14.01,2013-01-18 02:20:00,
2013-01-17 20:30:00,32.9,26.2,30.49,NNW,336,0.0,0.0,76,0.00,,,0.00,VWS V14.01,2013-01-18 02:30:00,
2013-01-17 20:35:00,32.9,26.2,30.49,NNW,336,0.0,0.0,76,0.00,,,0.00,VWS V14.01,2013-01-18 02:35:00,
2013-01-17 20:45:00,32.8,26.4,30.49,NNW,336,0.0,0.0,77,0.00,,,0.00,VWS V14.01,2013-01-18 02:45:00,
2013-01-17 20:55:00,32.5,26.1,30.49,NNW,336,0.0,0.0,77,0.00,,,0.00,VWS V14.01,2013-01-18 02:55:00,
2013-01-17 21:00:00,32.3,25.9,30.49,NNW,336,0.0,0.0,77,0.00,,,0.00,VWS V14.01,2013-01-18 03:00:00,
2013-01-17 21:05:00,32.0,25.6,30.49,NNW,336,0.0,0.0,77,0.00,,,0.00,VWS V14.01,2013-01-18 03:05:00,
2013-01-17 21:15:00,31.0,25.0,30.50,NNW,336,0.0,0.0,78,0.00,,,0.00,VWS V14.01,2013-01-18 03:15:00,
2013-01-17 21:20:00,30.6,24.6,30.50,NNW,336,0.0,0.0,78,0.00,,,0.00,VWS V14.01,2013-01-18 03:20:00,
2013-01-17 21:25:00,30.1,24.4,30.50,NNW,336,0.0,0.0,79,0.00,,,0.00,VWS V14.01,2013-01-18 03:25:00,
2013-01-17 21:35:00,29.5,24.4,30.50,NNW,336,0.0,0.0,81,0.00,,,0.00,VWS V14.01,2013-01-18 03:35:00,
2013-01-17 21:45:00,29.2,24.1,30.50,NNW,336,0.0,0.0,81,0.00,,,0.00,VWS V14.01,2013-01-18 03:45:00,
2013-01-17 21:50:00,29.1,24.6,30.50,NNW,336,0.0,0.0,83,0.00,,,0.00,VWS V14.01,2013-01-18 03:50:00,
2013-01-17 21:55:00,29.2,24.7,30.50,NNW,336,0.0,0.0,83,0.00,,,0.00,VWS V14.01,2013-01-18 03:55:00,
2013-01-17 22:05:00,29.1,24.6,30.50,NNW,336,0.0,0.0,83,0.00,,,0.00,VWS V14.01,2013-01-18 04:05:00,
2013-01-17 22:10:00,29.0,24.5,30.50,NNW,336,0.0,0.0,83,0.00,,,0.00,VWS V14.01,2013-01-18 04:10:00,
2013-01-17 22:15:00,29.0,24.5,30.49,NNW,336,0.0,0.0,83,0.00,,,0.00,VWS V14.01,2013-01-18 04:15:00,
2013-01-17 22:20:00,28.9,24.4,30.49,NNW,336,0.0,0.0,83,0.00,,,0.00,VWS V14.01,2013-01-18 04:20:00,
2013-01-17 22:25:00,28.7,24.2,30.49,NNW,336,0.0,0.0,83,0.00,,,0.00,VWS V14.01,2013-01-18 04:25:00,
2013-01-17 22:30:00,28.6,24.1,30.49,NNW,336,0.0,0.0,83,0.00,,,0.00,VWS V14.01,2013-01-18 04:30:00,
2013-01-17 22:35:00,28.5,24.3,30.49,NNW,336,0.0,0.0,84,0.00,,,0.00,VWS V14.01,2013-01-18 04:35:00,
2013-01-17 22:45:00,28.3,24.1,30.50,NNW,336,0.0,0.0,84,0.00,,,0.00,VWS V14.01,2013-01-18 04:45:00,
2013-01-17 22:50:00,28.0,23.8,30.50,NNW,336,0.0,0.0,84,0.00,,,0.00,VWS V14.01,2013-01-18 04:50:00,
2013-01-17 23:05:00,27.4,23.5,30.50,NNW,336,0.0,0.0,85,0.00,,,0.00,VWS V14.01,2013-01-18 05:05:00,
2013-01-17 23:10:00,27.4,23.8,30.50,NNW,336,0.0,0.0,86,0.00,,,0.00,VWS V14.01,2013-01-18 05:10:00,
2013-01-17 23:15:00,27.3,23.4,30.50,NNW,336,0.0,0.0,85,0.00,,,0.00,VWS V14.01,2013-01-18 05:15:00,
2013-01-17 23:20:00,27.1,23.2,30.50,NNW,336,0.0,0.0,85,0.00,,,0.00,VWS V14.01,2013-01-18 05:20:00,
2013-01-17 23:25:00,27.0,23.1,30.50,NNW,336,0.0,0.0,85,0.00,,,0.00,VWS V14.01,2013-01-18 05:25:00,
2013-01-17 23:30:00,26.8,22.9,30.50,NNW,336,0.0,0.0,85,0.00,,,0.00,VWS V14.01,2013-01-18 05:30:00,
2013-01-17 23:35:00,26.7,23.1,30.50,NNW,336,0.0,0.0,86,0.00,,,0.00,VWS V14.01,2013-01-18 05:35:00,
2013-01-17 23:40:00,26.5,22.9,30.50,NNW,336,0.0,0.0,86,0.00,,,0.00,VWS V14.01,2013-01-18 05:40:00,
2013-01-17 23:45:00,26.3,22.7,30.50,NNW,336,0.0,0.0,86,0.00,,,0.00,VWS V14.01,2013-01-18 05:45:00,
2013-01-17 23:50:00,26.2,22.6,30.50,NNW,336,0.0,0.0,86,0.00,,,0.00,VWS V14.01,2013-01-18 05:50:00,
2013-01-17 23:55:00,25.9,22.3,30.50,NNW,336,0.0,0.0,86,0.00,,,0.00,VWS V14.01,2013-01-18 05:55:00,